Time;durP1;ratioP1;P1;durP2;ratioP2;P2;SDS_P1;SDS_P2;PMS_P1;PMS_P2;Temp;Humidity;BMP_temperature;BMP_pressure;BME280_temperature;BME280_humidity;BME280_pressure;Samples;Min_cycle;Max_cycle;Signal;HPM_P1;HPM_P2
2023/05/11 00:01:08;;;;;;;18.60;11.48;;;11.90;99.90;;;;;;5113224;28;20414;-69
2023/05/11 00:03:34;;;;;;;17.27;9.93;;;12.00;99.90;;;;;;5112742;28;20036;-69
2023/05/11 00:06:00;;;;;;;17.95;11.15;;;12.00;99.90;;;;;;5113247;28;20048;-69
2023/05/11 00:08:26;;;;;;;18.63;11.60;;;12.00;99.90;;;;;;5112888;28;20042;-69
2023/05/11 00:10:51;;;;;;;20.83;12.25;;;11.90;99.90;;;;;;5113518;28;20040;-69
2023/05/11 00:13:17;;;;;;;19.27;10.77;;;11.90;99.90;;;;;;5113125;28;20089;-69
2023/05/11 00:15:43;;;;;;;18.38;10.82;;;11.90;99.90;;;;;;5094830;28;20471;-69
2023/05/11 00:18:09;;;;;;;19.75;11.90;;;11.90;99.90;;;;;;5113147;28;20036;-69
2023/05/11 00:20:35;;;;;;;20.75;11.55;;;12.00;99.90;;;;;;5113205;28;20071;-69
2023/05/11 00:23:01;;;;;;;18.02;10.25;;;12.00;99.90;;;;;;5112949;28;20051;-69
2023/05/11 00:25:26;;;;;;;16.85;10.75;;;12.00;99.90;;;;;;5112762;28;20088;-69
2023/05/11 00:27:52;;;;;;;21.23;12.32;;;12.00;99.90;;;;;;5112965;28;20043;-69
2023/05/11 00:30:18;;;;;;;21.15;12.25;;;12.00;99.90;;;;;;5113133;28;20406;-69
2023/05/11 00:32:43;;;;;;;20.70;11.52;;;11.90;99.90;;;;;;5112854;28;20046;-69
2023/05/11 00:35:10;;;;;;;21.25;10.75;;;11.90;99.90;;;;;;5112791;28;20042;-69
2023/05/11 00:37:37;;;;;;;19.45;11.95;;;11.90;99.90;;;;;;5112510;28;20067;-69
2023/05/11 00:40:03;;;;;;;19.25;10.98;;;11.90;99.90;;;;;;5112760;28;20031;-69
2023/05/11 00:42:29;;;;;;;16.98;10.63;;;11.90;99.90;;;;;;5113069;28;20046;-69
2023/05/11 00:44:54;;;;;;;21.13;11.63;;;11.90;99.90;;;;;;5094003;28;20039;-69
2023/05/11 00:47:20;;;;;;;19.83;11.55;;;11.80;99.90;;;;;;5111883;28;20035;-69
2023/05/11 00:49:48;;;;;;;24.25;12.07;;;11.80;99.90;;;;;;5112688;28;20044;-69
2023/05/11 00:52:13;;;;;;;26.35;12.13;;;11.80;99.90;;;;;;5112286;28;20036;-69
2023/05/11 00:54:40;;;;;;;21.63;11.68;;;11.80;99.90;;;;;;5111684;28;20039;-69
2023/05/11 00:57:05;;;;;;;21.05;11.30;;;11.80;99.90;;;;;;5093569;28;20487;-69
2023/05/11 00:59:31;;;;;;;16.88;10.25;;;11.70;99.90;;;;;;5112190;28;20118;-69
2023/05/11 01:01:57;;;;;;;19.52;11.02;;;11.70;99.90;;;;;;5112100;28;20123;-70
2023/05/11 01:04:22;;;;;;;19.63;11.48;;;11.70;99.90;;;;;;5111973;28;20119;-69
2023/05/11 01:07:04;;;;;;;19.75;11.00;;;11.70;99.90;;;;;;5111776;28;20043;-69
2023/05/11 01:09:49;;;;;;;19.48;10.75;;;11.70;99.90;;;;;;5093798;28;20027;-68
2023/05/11 01:12:45;;;;;;;19.60;10.85;;;11.70;99.90;;;;;;5112102;28;20563;-69
2023/05/11 01:15:12;;;;;;;22.63;11.40;;;11.70;99.90;;;;;;5079642;28;20040;-70
2023/05/11 01:18:18;;;;;;;20.13;11.45;;;11.70;99.90;;;;;;5080745;28;20032;-69
2023/05/11 01:20:47;;;;;;;20.30;11.93;;;11.70;99.90;;;;;;5075125;28;20044;-69
2023/05/11 01:23:39;;;;;;;23.23;11.38;;;11.70;99.90;;;;;;5116214;28;20031;-70
2023/05/11 01:26:14;;;;;;;21.05;11.32;;;11.70;99.90;;;;;;5097883;28;20031;-69
2023/05/11 01:29:28;;;;;;;20.00;11.30;;;11.60;99.90;;;;;;5115945;28;20035;-69
2023/05/11 01:31:54;;;;;;;;;;;11.60;99.90;;;;;;5116446;28;20035;-69
2023/05/11 01:34:30;;;;;;;19.40;11.65;;;11.50;99.90;;;;;;5115455;28;20305;-69
2023/05/11 01:37:11;;;;;;;18.67;10.57;;;11.60;99.90;;;;;;5097295;28;20089;-69
2023/05/11 01:39:47;;;;;;;18.05;10.50;;;11.60;99.90;;;;;;5116026;28;20067;-69
2023/05/11 01:42:14;;;;;;;21.08;11.48;;;11.60;99.90;;;;;;5115993;28;20039;-69
2023/05/11 01:44:45;;;;;;;19.33;10.57;;;11.60;99.90;;;;;;5115639;28;20058;-69
2023/05/11 01:47:12;;;;;;;15.68;9.95;;;11.50;99.90;;;;;;5115779;28;20040;-69
2023/05/11 01:49:42;;;;;;;21.33;9.70;;;11.50;99.90;;;;;;5115743;28;20035;-69
2023/05/11 01:52:10;;;;;;;14.07;8.65;;;11.50;99.90;;;;;;5115630;28;20031;-69
2023/05/11 01:54:37;;;;;;;22.50;10.52;;;11.50;99.90;;;;;;5115343;28;20035;-69
2023/05/11 01:57:04;;;;;;;15.90;9.02;;;11.40;99.90;;;;;;5115105;28;20563;-69
2023/05/11 01:59:31;;;;;;;20.35;10.65;;;11.50;99.90;;;;;;5115441;28;20039;-69
2023/05/11 02:01:57;;;;;;;24.20;11.55;;;11.40;99.90;;;;;;5097179;28;20553;-69
2023/05/11 02:04:24;;;;;;;17.15;10.15;;;11.50;99.90;;;;;;5115601;28;20046;-69
2023/05/11 02:06:52;;;;;;;19.85;10.82;;;11.50;99.90;;;;;;5097017;28;20123;-69
2023/05/11 02:09:20;;;;;;;17.98;10.43;;;11.50;99.90;;;;;;5097197;28;20054;-69
2023/05/11 02:11:48;;;;;;;19.85;10.48;;;11.50;99.90;;;;;;5115083;28;20046;-69
2023/05/11 02:14:16;;;;;;;18.83;10.45;;;11.50;99.90;;;;;;5096580;28;20082;-69
2023/05/11 02:16:44;;;;;;;15.70;9.13;;;11.50;99.90;;;;;;5096621;28;20035;-69
2023/05/11 02:19:11;;;;;;;15.32;8.75;;;11.40;99.90;;;;;;5114879;28;20043;-69
2023/05/11 02:21:38;;;;;;;16.15;8.90;;;11.40;99.90;;;;;;5114740;28;20047;-70
2023/05/11 02:24:05;;;;;;;14.95;9.10;;;11.40;99.90;;;;;;5114774;28;20051;-69
2023/05/11 02:26:31;;;;;;;12.15;7.35;;;11.40;99.90;;;;;;5095462;28;20517;-69
2023/05/11 02:28:57;;;;;;;13.00;7.57;;;11.40;99.90;;;;;;5114996;28;20043;-69
2023/05/11 02:31:28;;;;;;;15.82;9.73;;;11.40;99.90;;;;;;5080052;28;20038;-69
2023/05/11 02:34:03;;;;;;;20.63;9.30;;;11.30;99.90;;;;;;5096339;28;20067;-69
2023/05/11 02:36:31;;;;;;;19.52;11.27;;;11.30;99.90;;;;;;5096627;28;20099;-68
2023/05/11 02:39:05;;;;;;;19.10;9.88;;;11.30;99.90;;;;;;5095938;28;20052;-68
2023/05/11 02:41:37;;;;;;;26.42;11.27;;;11.30;99.90;;;;;;5114664;28;20027;-68
2023/05/11 02:44:05;;;;;;;26.27;13.05;;;11.30;99.90;;;;;;5080047;28;20035;-69
2023/05/11 02:46:34;;;;;;;34.40;14.50;;;11.30;99.90;;;;;;5114395;28;20039;-68
2023/05/11 02:49:04;;;;;;;36.72;16.77;;;11.20;99.90;;;;;;5114394;28;20043;-69
2023/05/11 02:51:34;;;;;;;41.50;16.20;;;11.30;99.90;;;;;;5096336;28;20097;-68
2023/05/11 02:54:01;;;;;;;42.17;18.23;;;11.30;99.90;;;;;;5114299;28;20074;-69
2023/05/11 02:56:28;;;;;;;47.72;19.88;;;11.30;99.90;;;;;;5096225;28;20035;-68
2023/05/11 02:58:54;;;;;;;45.20;20.33;;;11.30;99.90;;;;;;5113954;28;20463;-68
2023/05/11 03:01:20;;;;;;;66.00;22.67;;;11.30;99.90;;;;;;5114384;28;20039;-69
2023/05/11 03:03:46;;;;;;;64.28;22.05;;;11.30;99.90;;;;;;5114187;28;20096;-68
2023/05/11 03:06:12;;;;;;;56.75;24.92;;;11.40;99.90;;;;;;5113669;28;20131;-68
2023/05/11 03:08:37;;;;;;;57.88;22.42;;;11.40;99.90;;;;;;5113589;28;20047;-68
2023/05/11 03:11:04;;;;;;;72.63;25.00;;;11.40;99.90;;;;;;5095488;28;20058;-69
2023/05/11 03:13:30;;;;;;;59.88;23.02;;;11.40;99.90;;;;;;5113669;28;20081;-69
2023/05/11 03:15:57;;;;;;;65.30;27.02;;;11.40;99.90;;;;;;5095234;28;20518;-68
2023/05/11 03:18:25;;;;;;;74.70;26.95;;;11.40;99.90;;;;;;5113444;28;20042;-68
2023/05/11 03:20:51;;;;;;;73.25;25.17;;;11.40;99.90;;;;;;5113718;28;20032;-68
2023/05/11 03:23:18;;;;;;;78.05;25.90;;;11.40;99.90;;;;;;5113553;28;20391;-68
2023/05/11 03:25:44;;;;;;;69.00;25.58;;;11.40;99.90;;;;;;5113280;28;20499;-69
2023/05/11 03:28:12;;;;;;;68.35;25.33;;;11.40;99.90;;;;;;5113369;28;20038;-68
2023/05/11 03:30:39;;;;;;;78.45;29.00;;;11.40;99.90;;;;;;5113133;28;20090;-68
2023/05/11 03:33:05;;;;;;;67.80;24.33;;;11.40;99.90;;;;;;5094927;28;20047;-68
2023/05/11 03:35:33;;;;;;;72.97;25.83;;;11.40;99.90;;;;;;5113347;28;20047;-69
2023/05/11 03:37:59;;;;;;;64.80;24.65;;;11.40;99.90;;;;;;5113087;28;20085;-68
2023/05/11 03:40:28;;;;;;;69.88;23.17;;;11.40;99.90;;;;;;5114147;28;20503;-68
2023/05/11 03:42:55;;;;;;;66.35;23.75;;;11.30;99.90;;;;;;5113915;28;20040;-69
2023/05/11 03:45:22;;;;;;;66.70;24.50;;;11.30;99.90;;;;;;5113656;28;20118;-69
2023/05/11 03:47:50;;;;;;;76.68;25.25;;;11.30;99.90;;;;;;5113374;28;20040;-69
2023/05/11 03:50:16;;;;;;;75.78;25.30;;;11.30;99.90;;;;;;5113715;28;20061;-69
2023/05/11 03:52:42;;;;;;;62.92;21.90;;;11.40;99.90;;;;;;5094671;28;20491;-69
2023/05/11 03:55:08;;;;;;;74.15;24.45;;;11.30;99.90;;;;;;5112673;28;20406;-69
2023/05/11 03:57:35;;;;;;;75.05;23.05;;;11.30;99.90;;;;;;5112715;28;20035;-69
2023/05/11 04:00:01;;;;;;;58.58;21.08;;;11.30;99.90;;;;;;5112744;28;20122;-68
2023/05/11 04:02:26;;;;;;;49.70;18.45;;;11.30;99.90;;;;;;5113343;28;20149;-69
2023/05/11 04:04:52;;;;;;;51.22;17.17;;;11.30;99.90;;;;;;5112751;28;20145;-69
2023/05/11 04:07:18;;;;;;;54.13;19.05;;;11.30;99.90;;;;;;5094115;28;20047;-69
2023/05/11 04:09:44;;;;;;;47.75;17.85;;;11.30;99.90;;;;;;5112641;28;20126;-69
2023/05/11 04:12:09;;;;;;;45.08;16.50;;;11.30;99.90;;;;;;5112695;28;20032;-69
2023/05/11 04:14:35;;;;;;;45.38;18.40;;;11.20;99.90;;;;;;5112477;28;20076;-69
2023/05/11 04:17:00;;;;;;;38.08;15.13;;;11.30;99.90;;;;;;5112158;28;20035;-68
2023/05/11 04:19:26;;;;;;;29.75;12.98;;;11.20;99.90;;;;;;5112660;28;20565;-68
2023/05/11 04:21:52;;;;;;;29.50;12.48;;;11.20;99.90;;;;;;5112614;28;20433;-69
2023/05/11 04:24:17;;;;;;;32.83;13.68;;;11.20;99.90;;;;;;5112281;28;20114;-69
2023/05/11 04:26:43;;;;;;;34.10;13.75;;;11.20;99.90;;;;;;5112207;28;20566;-69
2023/05/11 04:29:09;;;;;;;33.47;14.77;;;11.30;99.90;;;;;;5094264;28;20047;-69
2023/05/11 04:31:34;;;;;;;37.47;14.50;;;11.20;99.90;;;;;;5094582;28;20517;-68
2023/05/11 04:34:00;;;;;;;45.13;17.48;;;11.20;99.90;;;;;;5094389;28;20134;-69
2023/05/11 04:36:26;;;;;;;45.30;17.20;;;11.20;99.90;;;;;;5113001;28;20035;-68
2023/05/11 04:38:52;;;;;;;40.42;17.08;;;11.20;99.90;;;;;;5112851;28;20092;-69
2023/05/11 04:41:17;;;;;;;45.60;19.58;;;11.20;99.90;;;;;;5113148;28;20039;-69
2023/05/11 04:43:43;;;;;;;41.35;15.63;;;11.20;99.90;;;;;;5113057;28;20039;-69
2023/05/11 04:46:09;;;;;;;38.10;14.35;;;11.20;99.90;;;;;;5112670;28;20043;-69
2023/05/11 04:48:35;;;;;;;34.03;15.05;;;11.20;99.90;;;;;;5112338;28;20043;-68
2023/05/11 04:51:05;;;;;;;34.05;14.27;;;11.20;99.90;;;;;;5113312;28;20513;-69
2023/05/11 04:53:30;;;;;;;32.85;13.23;;;11.20;99.90;;;;;;5113080;28;20517;-68
2023/05/11 04:55:56;;;;;;;36.42;14.70;;;11.20;99.90;;;;;;5112378;28;20035;-69
2023/05/11 04:58:21;;;;;;;31.55;15.55;;;11.20;99.90;;;;;;5112487;28;20039;-69
2023/05/11 05:00:47;;;;;;;31.80;14.70;;;11.20;99.90;;;;;;5112927;28;20071;-68
2023/05/11 05:03:12;;;;;;;37.83;15.68;;;11.20;99.90;;;;;;5112744;28;20040;-69
2023/05/11 05:05:38;;;;;;;32.80;14.55;;;11.10;99.90;;;;;;5112872;28;20032;-69
2023/05/11 05:08:04;;;;;;;28.67;12.95;;;11.20;99.90;;;;;;5112833;28;20067;-68
2023/05/11 05:10:29;;;;;;;43.20;14.70;;;11.20;99.90;;;;;;5094599;28;20402;-69
2023/05/11 05:12:55;;;;;;;31.52;12.85;;;11.10;99.90;;;;;;5112649;28;20036;-69
2023/05/11 05:15:20;;;;;;;29.70;12.85;;;11.20;99.90;;;;;;5112051;28;20088;-69
2023/05/11 05:17:46;;;;;;;30.20;13.05;;;11.20;99.90;;;;;;5112925;28;20040;-69
2023/05/11 05:20:11;;;;;;;30.30;13.15;;;11.10;99.90;;;;;;5094909;28;20043;-69
2023/05/11 05:22:37;;;;;;;29.27;13.40;;;11.20;99.90;;;;;;5112762;28;20043;-69
2023/05/11 05:25:03;;;;;;;25.58;12.35;;;11.20;99.90;;;;;;5112638;28;20035;-69
2023/05/11 05:27:29;;;;;;;25.40;11.77;;;11.30;99.90;;;;;;5112569;28;20054;-68
2023/05/11 05:29:54;;;;;;;24.10;12.55;;;11.30;99.90;;;;;;5113079;28;20584;-69
2023/05/11 05:32:20;;;;;;;25.60;13.27;;;11.40;99.90;;;;;;5112558;28;20075;-69
2023/05/11 05:34:46;;;;;;;26.52;12.98;;;11.40;99.90;;;;;;5112903;28;20411;-69
2023/05/11 05:37:11;;;;;;;24.00;13.23;;;11.40;99.90;;;;;;5112190;28;20040;-68
2023/05/11 05:39:37;;;;;;;25.40;12.75;;;11.50;99.90;;;;;;5112162;28;20043;-69
2023/05/11 05:42:02;;;;;;;38.42;16.05;;;11.50;99.90;;;;;;5112319;28;20484;-69
2023/05/11 05:44:28;;;;;;;32.95;13.90;;;11.50;99.90;;;;;;5094162;28;20054;-69
2023/05/11 05:46:54;;;;;;;28.45;13.98;;;11.50;99.90;;;;;;5112087;28;20406;-69
2023/05/11 05:49:19;;;;;;;28.85;13.85;;;11.50;99.90;;;;;;5093716;28;20115;-68
2023/05/11 05:51:45;;;;;;;21.77;11.48;;;11.50;99.90;;;;;;5112310;28;20039;-68
2023/05/11 05:54:12;;;;;;;37.45;14.95;;;11.50;99.90;;;;;;5111790;28;20036;-69
2023/05/11 05:56:39;;;;;;;28.30;15.13;;;11.50;99.90;;;;;;5111274;28;20044;-69
2023/05/11 05:59:05;;;;;;;36.80;14.98;;;11.50;99.90;;;;;;5111341;28;20039;-69
2023/05/11 06:01:31;;;;;;;32.33;14.68;;;11.50;99.90;;;;;;5094882;28;20048;-68
2023/05/11 06:03:56;;;;;;;42.25;17.70;;;11.50;99.90;;;;;;5114716;28;20053;-69
2023/05/11 06:06:22;;;;;;;38.97;15.27;;;11.40;99.90;;;;;;5114878;28;20068;-68
2023/05/11 06:08:47;;;;;;;28.48;14.65;;;11.50;99.90;;;;;;5114156;28;20093;-68
2023/05/11 06:11:13;;;;;;;44.70;17.70;;;11.60;99.90;;;;;;5114884;28;20050;-68
2023/05/11 06:13:38;;;;;;;31.83;15.70;;;11.60;99.90;;;;;;5115399;28;20053;-68
2023/05/11 06:16:04;;;;;;;36.42;16.23;;;11.60;99.90;;;;;;5114852;28;20100;-68
2023/05/11 06:18:30;;;;;;;32.03;15.27;;;11.60;99.90;;;;;;5115010;28;20032;-69
2023/05/11 06:20:55;;;;;;;29.48;15.50;;;11.60;99.90;;;;;;5114617;28;20040;-69
2023/05/11 06:23:21;;;;;;;47.20;18.55;;;11.60;99.90;;;;;;5097209;28;20051;-68
2023/05/11 06:25:46;;;;;;;32.22;15.98;;;11.60;99.90;;;;;;5096916;28;20054;-69
2023/05/11 06:28:12;;;;;;;35.70;17.50;;;11.60;99.90;;;;;;5114607;28;20031;-68
2023/05/11 06:30:38;;;;;;;34.88;16.85;;;11.70;99.90;;;;;;5115473;28;20046;-69
2023/05/11 06:33:03;;;;;;;36.00;17.55;;;11.60;99.90;;;;;;5115657;28;20043;-69
2023/05/11 06:35:29;;;;;;;32.90;16.48;;;11.70;99.90;;;;;;5115354;28;20039;-69
2023/05/11 06:37:55;;;;;;;38.97;17.42;;;11.70;99.90;;;;;;5096728;28;20114;-69
2023/05/11 06:40:21;;;;;;;36.35;17.48;;;11.70;99.90;;;;;;5115364;28;20039;-69
2023/05/11 06:42:46;;;;;;;36.63;17.17;;;11.70;99.90;;;;;;5114848;28;20130;-71
2023/05/11 06:45:12;;;;;;;39.03;19.15;;;11.70;99.90;;;;;;5114912;28;20461;-69
2023/05/11 06:47:38;;;;;;;37.70;18.98;;;11.80;99.90;;;;;;5114611;28;20039;-69
2023/05/11 06:50:04;;;;;;;37.65;18.40;;;11.80;99.90;;;;;;5114656;28;20035;-68
2023/05/11 06:52:29;;;;;;;36.35;17.58;;;11.80;99.90;;;;;;5114176;28;20061;-69
2023/05/11 06:54:55;;;;;;;42.75;19.52;;;11.70;99.90;;;;;;5113986;28;20047;-73
2023/05/11 06:57:22;;;;;;;40.72;19.33;;;11.80;99.90;;;;;;5095597;28;20503;-69
2023/05/11 06:59:48;;;;;;;45.63;19.25;;;11.80;99.90;;;;;;5113966;28;20122;-68
2023/05/11 07:02:13;;;;;;;43.72;20.83;;;11.90;99.90;;;;;;5114014;28;20044;-69
2023/05/11 07:04:39;;;;;;;39.47;18.70;;;11.80;99.90;;;;;;5113991;28;20071;-70
2023/05/11 07:07:04;;;;;;;36.90;17.48;;;11.90;99.90;;;;;;5096585;28;20522;-69
2023/05/11 07:09:30;;;;;;;40.65;17.92;;;12.00;99.90;;;;;;5096538;28;20035;-69
2023/05/11 07:11:56;;;;;;;35.78;17.52;;;12.00;99.90;;;;;;5095441;28;20096;-69
2023/05/11 07:14:21;;;;;;;39.40;17.10;;;12.00;99.90;;;;;;5095980;28;20075;-69
2023/05/11 07:16:47;;;;;;;43.03;21.30;;;12.00;99.90;;;;;;5095760;28;20040;-69
2023/05/11 07:19:13;;;;;;;39.08;18.40;;;12.00;99.90;;;;;;5096106;28;20437;-69
2023/05/11 07:21:39;;;;;;;33.35;17.05;;;12.00;99.90;;;;;;5096285;28;20084;-69
2023/05/11 07:24:05;;;;;;;33.85;16.65;;;12.00;99.90;;;;;;5113538;28;20043;-69
2023/05/11 07:26:30;;;;;;;29.23;16.77;;;12.10;99.90;;;;;;5095338;28;20126;-69
2023/05/11 07:28:56;;;;;;;28.75;15.45;;;12.20;99.90;;;;;;5094977;28;20054;-69
2023/05/11 07:31:21;;;;;;;34.45;17.63;;;12.10;99.90;;;;;;5113872;28;20039;-69
2023/05/11 07:33:47;;;;;;;29.45;15.77;;;12.20;99.90;;;;;;5091217;28;20508;-69
2023/05/11 07:36:13;;;;;;;26.70;15.48;;;12.20;99.90;;;;;;5113551;28;20036;-69
2023/05/11 07:38:38;;;;;;;27.17;14.57;;;12.20;99.90;;;;;;5133357;27;20030;-69
2023/05/11 07:41:04;;;;;;;28.75;16.33;;;12.20;99.90;;;;;;5126766;27;20495;-69
2023/05/11 07:43:29;;;;;;;29.05;15.27;;;12.30;99.90;;;;;;5102891;28;20036;-69
2023/05/11 07:45:55;;;;;;;25.42;13.85;;;12.30;99.90;;;;;;5092662;28;20090;-69
2023/05/11 07:48:21;;;;;;;24.73;14.38;;;12.30;99.90;;;;;;5092644;28;20112;-69
2023/05/11 07:50:48;;;;;;;25.10;15.13;;;12.40;99.90;;;;;;5092800;28;20044;-69
2023/05/11 07:53:14;;;;;;;22.00;12.93;;;12.40;99.90;;;;;;5092473;28;20051;-69
2023/05/11 07:55:40;;;;;;;21.45;12.68;;;12.40;99.90;;;;;;5074173;28;20036;-68
2023/05/11 07:58:05;;;;;;;24.40;13.15;;;12.50;99.90;;;;;;5093014;28;20507;-69
2023/05/11 08:00:31;;;;;;;16.83;9.98;;;12.50;99.90;;;;;;5093643;28;20065;-68
2023/05/11 08:02:56;;;;;;;18.02;10.57;;;12.50;99.90;;;;;;5093072;28;20043;-69
2023/05/11 08:05:22;;;;;;;17.45;10.98;;;12.60;99.90;;;;;;5058308;28;20065;-69
2023/05/11 08:07:48;;;;;;;20.15;12.35;;;12.50;99.90;;;;;;5093101;28;20036;-68
2023/05/11 08:10:13;;;;;;;17.50;12.20;;;12.50;99.90;;;;;;5092644;28;20043;-69
2023/05/11 08:12:39;;;;;;;18.83;11.43;;;12.60;99.90;;;;;;5092887;28;20039;-69
2023/05/11 08:15:05;;;;;;;18.13;11.80;;;12.60;99.90;;;;;;5092408;28;20036;-69
2023/05/11 08:17:31;;;;;;;18.52;10.20;;;12.60;99.90;;;;;;5092186;28;20036;-69
2023/05/11 08:19:56;;;;;;;15.25;9.85;;;12.70;99.90;;;;;;5092246;28;20093;-69
2023/05/11 08:22:22;;;;;;;18.33;10.52;;;12.70;99.90;;;;;;5092351;28;20066;-69
2023/05/11 08:24:49;;;;;;;16.50;9.75;;;12.70;99.90;;;;;;5092208;28;20082;-69
2023/05/11 08:27:16;;;;;;;17.48;10.32;;;12.80;99.90;;;;;;5091906;28;20036;-69
2023/05/11 08:29:41;;;;;;;14.35;9.40;;;12.80;99.90;;;;;;5092338;28;20097;-69
2023/05/11 08:32:07;;;;;;;13.15;7.68;;;12.80;99.90;;;;;;5092110;28;20032;-69
2023/05/11 08:34:33;;;;;;;14.50;8.55;;;12.80;99.90;;;;;;5092891;28;20079;-69
2023/05/11 08:37:00;;;;;;;15.25;8.30;;;12.90;99.90;;;;;;5092575;28;20068;-69
2023/05/11 08:39:26;;;;;;;13.27;8.55;;;12.80;99.90;;;;;;5092688;28;20081;-68
2023/05/11 08:41:53;;;;;;;12.82;8.43;;;12.80;99.90;;;;;;5093110;28;20035;-71
2023/05/11 08:44:20;;;;;;;14.77;9.40;;;12.80;99.90;;;;;;5093095;28;20051;-72
2023/05/11 08:46:47;;;;;;;13.90;8.75;;;12.80;99.90;;;;;;5074250;28;20047;-69
2023/05/11 08:49:14;;;;;;;14.27;10.15;;;12.80;99.90;;;;;;5073596;28;20052;-68
2023/05/11 08:51:40;;;;;;;15.57;9.45;;;12.80;99.90;;;;;;5091654;28;20534;-68
2023/05/11 08:54:06;;;;;;;15.13;10.15;;;12.80;99.90;;;;;;5091310;28;20108;-70
2023/05/11 08:56:35;;;;;;;16.92;11.75;;;12.90;99.90;;;;;;5091788;28;20036;-69
2023/05/11 08:59:03;;;;;;;15.50;11.10;;;12.90;99.90;;;;;;5091672;28;20067;-69
2023/05/11 09:01:29;;;;;;;16.13;11.65;;;12.80;99.90;;;;;;5091827;28;20107;-69
2023/05/11 09:03:55;;;;;;;17.30;10.30;;;12.90;99.90;;;;;;5073367;28;20461;-69
2023/05/11 09:06:23;;;;;;;15.68;9.93;;;13.00;99.90;;;;;;5073571;28;20063;-69
2023/05/11 09:08:49;;;;;;;15.32;10.05;;;13.00;99.90;;;;;;5092016;28;20093;-69
2023/05/11 09:11:15;;;;;;;15.70;9.93;;;13.10;99.90;;;;;;5092078;28;20036;-69
2023/05/11 09:13:41;;;;;;;17.23;9.80;;;13.00;99.90;;;;;;5092512;28;20055;-69
2023/05/11 09:16:06;;;;;;;17.73;10.50;;;13.10;99.90;;;;;;5092480;28;20115;-69
2023/05/11 09:18:32;;;;;;;13.43;9.05;;;13.10;99.90;;;;;;5092671;28;20495;-69
2023/05/11 09:21:00;;;;;;;13.52;9.38;;;13.00;99.90;;;;;;5074513;28;20568;-69
2023/05/11 09:23:26;;;;;;;13.68;9.20;;;13.20;99.90;;;;;;5073324;28;20044;-70
2023/05/11 09:25:52;;;;;;;15.13;9.45;;;13.20;99.90;;;;;;5092663;28;20101;-70
2023/05/11 09:28:24;;;;;;;15.20;9.63;;;13.20;99.90;;;;;;5073629;28;20644;-69
2023/05/11 09:30:49;;;;;;;14.07;8.98;;;13.30;99.90;;;;;;5091578;28;20509;-69
2023/05/11 09:33:24;;;;;;;14.52;9.57;;;13.50;99.90;;;;;;5073132;28;20119;-69
2023/05/11 09:35:50;;;;;;;17.00;8.30;;;13.60;99.90;;;;;;5093799;28;20051;-70
2023/05/11 09:38:18;;;;;;;14.05;9.68;;;13.80;99.90;;;;;;5077144;28;20047;-69
2023/05/11 09:40:53;;;;;;;12.63;8.48;;;13.80;99.90;;;;;;5095231;28;20036;-72
2023/05/11 09:43:25;;;;;;;13.35;8.88;;;13.90;99.90;;;;;;5095091;28;20048;-70
2023/05/11 09:45:55;;;;;;;13.45;8.27;;;13.90;99.90;;;;;;5094802;28;20078;-70
2023/05/11 09:48:31;;;;;;;13.10;8.93;;;14.00;99.90;;;;;;5076843;28;20068;-71
2023/05/11 09:51:05;;;;;;;11.90;8.73;;;13.90;99.90;;;;;;5095261;28;20059;-71
2023/05/11 09:53:36;;;;;;;11.82;8.65;;;14.00;99.90;;;;;;5076982;28;20044;-70
2023/05/11 09:56:03;;;;;;;13.57;9.20;;;14.20;99.90;;;;;;5094728;28;20495;-71
2023/05/11 09:58:45;;;;;;;12.20;8.18;;;14.40;99.90;;;;;;5076921;28;20077;-71
2023/05/11 10:01:11;;;;;;;11.88;7.90;;;14.50;99.90;;;;;;5076812;28;20503;-71
2023/05/11 10:03:47;;;;;;;13.50;8.10;;;14.60;99.90;;;;;;5094068;28;20050;-70
2023/05/11 10:06:13;;;;;;;12.30;8.45;;;14.60;99.90;;;;;;5095197;28;20116;-70
2023/05/11 10:08:39;;;;;;;9.55;6.30;;;14.60;99.90;;;;;;5076868;28;20597;-70
2023/05/11 10:11:06;;;;;;;11.73;7.85;;;14.80;99.90;;;;;;5076808;28;20032;-70
2023/05/11 10:13:33;;;;;;;11.15;7.38;;;14.80;99.90;;;;;;5094791;28;20113;-70
2023/05/11 10:16:03;;;;;;;11.32;7.75;;;14.90;99.90;;;;;;5079602;28;20036;-71
2023/05/11 10:18:31;;;;;;;8.82;6.35;;;14.90;99.90;;;;;;5095648;28;20116;-70
2023/05/11 10:20:59;;;;;;;11.48;7.93;;;15.00;99.90;;;;;;5128789;27;20114;-71
2023/05/11 10:23:25;;;;;;;9.93;6.57;;;15.00;99.90;;;;;;5116537;27;20104;-70
2023/05/11 10:25:53;;;;;;;10.30;7.35;;;15.10;99.90;;;;;;5094506;28;20054;-70
2023/05/11 10:28:21;;;;;;;9.30;6.43;;;15.20;99.90;;;;;;5094593;28;20039;-70
2023/05/11 10:30:46;;;;;;;11.52;8.27;;;15.30;99.90;;;;;;5090019;28;20122;-70
2023/05/11 10:33:13;;;;;;;11.15;7.55;;;15.20;99.90;;;;;;5096436;28;20181;-70
2023/05/11 10:35:39;;;;;;;10.18;6.80;;;15.10;99.90;;;;;;5114299;28;20113;-70
2023/05/11 10:38:06;;;;;;;9.70;6.88;;;15.20;99.90;;;;;;5114340;28;20500;-70
2023/05/11 10:40:41;;;;;;;10.32;6.22;;;15.30;99.90;;;;;;5096383;28;20031;-69
2023/05/11 10:43:22;;;;;;;8.43;6.20;;;15.40;99.90;;;;;;5114487;28;20126;-69
2023/05/11 10:45:53;;;;;;;8.38;6.45;;;15.40;99.90;;;;;;5114383;28;20135;-69
2023/05/11 10:48:46;;;;;;;8.02;5.78;;;15.50;99.90;;;;;;5113256;28;20399;-69
2023/05/11 10:51:39;;;;;;;8.47;5.47;;;15.40;99.90;;;;;;5114371;28;20043;-69
2023/05/11 10:54:08;;;;;;;6.80;5.17;;;15.40;99.90;;;;;;5114037;28;20301;-69
2023/05/11 10:57:12;;;;;;;8.52;5.30;;;15.40;99.90;;;;;;5099171;22;20040;-66
2023/05/11 11:00:07;;;;;;;6.60;4.53;;;15.40;99.90;;;;;;5092490;28;20044;-66
2023/05/11 11:02:33;;;;;;;7.28;4.70;;;15.40;99.90;;;;;;5092936;28;20028;-66
2023/05/11 11:05:04;;;;;;;7.60;5.00;;;15.50;99.90;;;;;;5093263;28;20040;-66
2023/05/11 11:07:50;;;;;;;6.78;4.65;;;15.60;99.90;;;;;;5076205;28;20070;-68
2023/05/11 11:10:39;;;;;;;6.70;4.88;;;15.60;99.90;;;;;;5092883;28;20400;-67
2023/05/11 11:13:10;;;;;;;8.25;5.00;;;15.70;99.90;;;;;;5075281;28;20044;-67
2023/05/11 11:15:56;;;;;;;7.30;5.10;;;15.70;99.90;;;;;;5074582;28;20387;-67
2023/05/11 11:18:32;;;;;;;10.30;5.50;;;15.70;99.90;;;;;;5093310;28;20046;-67
2023/05/11 11:20:58;;;;;;;5.95;4.30;;;15.70;99.90;;;;;;5093333;28;20114;-67
2023/05/11 11:23:39;;;;;;;6.53;4.75;;;15.70;99.90;;;;;;5093160;28;20032;-67
2023/05/11 11:26:06;;;;;;;6.78;4.05;;;15.60;99.90;;;;;;5092932;28;20722;-68
2023/05/11 11:29:11;;;;;;;5.15;4.13;;;15.70;99.90;;;;;;5074785;28;20036;-67
2023/05/11 11:31:38;;;;;;;5.55;3.53;;;15.70;99.90;;;;;;5092511;28;20079;-67
2023/05/11 11:34:28;;;;;;;4.70;3.65;;;15.80;99.90;;;;;;5092750;28;20407;-67
2023/05/11 11:36:53;;;;;;;4.78;2.97;;;15.90;99.90;;;;;;5085594;28;20040;-67
2023/05/11 11:39:24;;;;;;;5.07;3.33;;;15.80;99.90;;;;;;5093845;28;20161;-68
2023/05/11 11:42:03;;;;;;;3.78;2.67;;;15.90;99.90;;;;;;5074663;28;20106;-67
2023/05/11 11:44:30;;;;;;;4.15;2.65;;;16.00;99.90;;;;;;5092511;28;20508;-67
2023/05/11 11:47:18;;;;;;;5.00;2.72;;;16.20;99.90;;;;;;5092259;28;20062;-67
2023/05/11 11:50:12;;;;;;;5.07;3.47;;;16.30;99.90;;;;;;5092573;28;20040;-67
2023/05/11 11:52:38;;;;;;;3.28;2.05;;;16.10;99.90;;;;;;5092601;28;20441;-67
2023/05/11 11:55:04;;;;;;;3.90;2.67;;;16.30;99.90;;;;;;5091883;28;20105;-67
2023/05/11 11:57:32;;;;;;;3.60;2.00;;;16.30;99.90;;;;;;5092468;28;20047;-67
2023/05/11 11:59:59;;;;;;;3.38;2.42;;;16.40;99.90;;;;;;5092386;28;20444;-67
2023/05/11 12:02:26;;;;;;;4.97;2.95;;;16.40;99.90;;;;;;5092425;28;20043;-67
2023/05/11 12:05:01;;;;;;;4.88;3.10;;;16.50;99.90;;;;;;5092242;28;20113;-67
2023/05/11 12:07:31;;;;;;;5.05;3.28;;;16.50;99.90;;;;;;5091933;28;20404;-67
2023/05/11 12:09:58;;;;;;;3.92;3.10;;;16.50;99.90;;;;;;5092526;28;20044;-67
2023/05/11 12:12:24;;;;;;;5.28;4.03;;;16.60;99.90;;;;;;5092382;28;20036;-67
2023/05/11 12:14:50;;;;;;;5.57;4.28;;;16.30;99.90;;;;;;5091997;28;20051;-67
2023/05/11 12:17:23;;;;;;;6.45;3.28;;;16.30;99.90;;;;;;5092171;28;20399;-67
2023/05/11 12:19:49;;;;;;;8.68;6.05;;;16.30;99.90;;;;;;5093018;28;20484;-67
2023/05/11 12:22:24;;;;;;;6.43;5.05;;;16.40;99.90;;;;;;5091980;28;20048;-67
2023/05/11 12:24:53;;;;;;;8.25;6.82;;;16.50;99.90;;;;;;5091892;28;20569;-67
2023/05/11 12:27:19;;;;;;;7.25;5.03;;;16.50;99.90;;;;;;5091866;28;20100;-67
2023/05/11 12:29:51;;;;;;;6.97;5.00;;;16.50;99.90;;;;;;5091911;28;20519;-67
2023/05/11 12:32:30;;;;;;;5.63;4.50;;;16.60;99.90;;;;;;5091963;28;20043;-68
2023/05/11 12:35:00;;;;;;;4.75;4.07;;;16.60;99.90;;;;;;5091634;28;20466;-67
2023/05/11 12:37:28;;;;;;;2.30;2.03;;;16.70;99.90;;;;;;5091642;28;20115;-67
2023/05/11 12:39:55;;;;;;;4.38;3.75;;;16.70;99.90;;;;;;5092189;28;20044;-67